createdAt,value
2017-09-22T00:00:09.063Z,20.27
2017-09-22T00:02:37.926Z,18.33
2017-09-22T00:05:06.787Z,18.08
2017-09-22T00:07:35.653Z,21.42
2017-09-22T00:10:05.318Z,20.10
2017-09-22T00:12:34.179Z,20.88
2017-09-22T00:15:03.054Z,21.27
2017-09-22T00:17:31.974Z,20.52
2017-09-22T00:20:00.848Z,18.50
2017-09-22T00:22:29.719Z,20.00
2017-09-22T00:24:59.343Z,18.45
2017-09-22T00:27:28.209Z,20.85
2017-09-22T00:29:57.065Z,18.75
2017-09-22T00:32:25.919Z,20.00
2017-09-22T00:34:54.597Z,17.73
2017-09-22T00:37:24.328Z,18.42
2017-09-22T00:39:52.990Z,19.05
2017-09-22T00:42:23.370Z,20.08
2017-09-22T00:44:52.045Z,20.48
2017-09-22T00:47:21.703Z,19.40
2017-09-22T00:49:50.572Z,19.67
2017-09-22T00:52:20.356Z,18.58
2017-09-22T00:54:49.229Z,19.27
2017-09-22T00:57:18.093Z,17.50
2017-09-22T00:59:47.833Z,19.35
2017-09-22T01:02:17.036Z,21.37
2017-09-22T01:04:45.887Z,19.80
2017-09-22T01:07:14.765Z,21.95
2017-09-22T01:09:43.705Z,18.73
2017-09-22T01:12:12.565Z,20.33
2017-09-22T01:14:42.205Z,19.87
2017-09-22T01:17:11.079Z,20.02
2017-09-22T01:19:40.709Z,19.17
2017-09-22T01:22:10.555Z,19.45
2017-09-22T01:24:39.419Z,20.95
2017-09-22T01:27:08.281Z,19.80
2017-09-22T01:29:37.912Z,17.95
2017-09-22T01:32:06.774Z,18.67
2017-09-22T01:34:36.435Z,20.35
2017-09-22T01:37:05.292Z,19.27
2017-09-22T01:39:34.933Z,20.50
2017-09-22T01:42:03.800Z,19.85
2017-09-22T01:44:32.655Z,18.37
2017-09-22T01:47:01.524Z,17.98
2017-09-22T01:49:30.391Z,18.95
2017-09-22T01:51:59.247Z,16.95
2017-09-22T01:54:29.163Z,18.87
2017-09-22T01:56:58.784Z,17.08
2017-09-22T01:59:28.909Z,19.55
2017-09-22T02:01:57.777Z,19.77
2017-09-22T02:04:27.415Z,18.83
2017-09-22T02:06:56.283Z,18.40
2017-09-22T02:09:25.931Z,18.77
2017-09-22T02:11:54.808Z,18.83
2017-09-22T02:14:23.672Z,16.30
2017-09-22T02:16:53.578Z,18.25
2017-09-22T02:19:23.203Z,17.75
2017-09-22T02:21:52.827Z,17.60
2017-09-22T02:24:21.684Z,16.80
2017-09-22T02:26:50.563Z,18.58
2017-09-22T02:29:19.984Z,16.75
2017-09-22T02:31:48.838Z,16.70
2017-09-22T02:34:17.718Z,17.55
2017-09-22T02:36:46.573Z,17.75
2017-09-22T02:39:16.205Z,17.30
2017-09-22T02:41:45.068Z,17.15
2017-09-22T02:44:14.699Z,16.27
2017-09-22T02:46:43.566Z,13.88
2017-09-22T02:49:13.196Z,15.30
2017-09-22T02:51:42.047Z,16.35
2017-09-22T02:54:10.912Z,17.48
2017-09-22T02:56:39.763Z,16.00
2017-09-22T02:59:09.386Z,16.75
2017-09-22T03:01:38.250Z,17.48
2017-09-22T03:04:09.032Z,16.15
2017-09-22T03:06:37.897Z,17.00
2017-09-22T03:09:06.755Z,16.67
2017-09-22T03:11:35.612Z,15.93
2017-09-22T03:14:04.476Z,19.05
2017-09-22T03:16:33.337Z,17.45
2017-09-22T03:19:02.962Z,17.77
2017-09-22T03:21:31.821Z,16.37
2017-09-22T03:24:00.676Z,15.82
2017-09-22T03:26:29.544Z,17.75
2017-09-22T03:28:58.403Z,17.92
2017-09-22T03:31:27.252Z,17.80
2017-09-22T03:33:56.238Z,16.75
2017-09-22T03:36:25.089Z,16.67
2017-09-22T03:38:54.720Z,17.75
2017-09-22T03:41:23.588Z,17.12
2017-09-22T03:43:53.236Z,19.05
2017-09-22T03:46:22.097Z,18.90
2017-09-22T03:48:51.730Z,17.73
2017-09-22T03:51:21.513Z,18.05
2017-09-22T03:53:51.317Z,17.27
2017-09-22T03:56:20.939Z,16.77
2017-09-22T03:58:50.570Z,20.00
2017-09-22T04:01:19.451Z,17.65
2017-09-22T04:03:48.311Z,17.25
2017-09-22T04:06:17.164Z,17.58
2017-09-22T04:08:46.036Z,18.95
2017-09-22T04:11:14.900Z,17.55
2017-09-22T04:13:43.764Z,19.85
2017-09-22T04:16:12.630Z,16.92
2017-09-22T04:18:41.498Z,20.42
2017-09-22T04:21:11.040Z,20.20
2017-09-22T04:23:40.363Z,19.62
2017-09-22T04:26:10.166Z,19.00
2017-09-22T04:28:39.073Z,18.75
2017-09-22T04:31:08.831Z,18.62
2017-09-22T04:33:37.704Z,21.45
2017-09-22T04:36:06.586Z,19.60
2017-09-22T04:38:35.461Z,20.58
2017-09-22T04:41:04.324Z,22.50
2017-09-22T04:43:33.200Z,19.65
2017-09-22T04:46:03.820Z,19.58
2017-09-22T04:48:32.689Z,20.70
2017-09-22T04:51:01.551Z,22.08
2017-09-22T04:53:31.189Z,24.17
2017-09-22T04:56:00.061Z,24.30
2017-09-22T04:58:29.714Z,25.08
2017-09-22T05:00:58.586Z,27.52
2017-09-22T05:03:28.127Z,26.75
2017-09-22T05:05:56.997Z,28.67
2017-09-22T05:08:25.863Z,26.33
2017-09-22T05:10:55.491Z,24.45
2017-09-22T05:13:24.339Z,25.35
2017-09-22T05:15:53.247Z,25.85
2017-09-22T05:18:22.118Z,25.30
2017-09-22T05:20:50.972Z,25.85
2017-09-22T05:23:19.835Z,26.58
2017-09-22T05:25:48.700Z,24.37
2017-09-22T05:28:17.560Z,25.90
2017-09-22T05:30:46.427Z,24.98
2017-09-22T05:33:15.268Z,25.25
2017-09-22T05:35:44.120Z,22.27
2017-09-22T05:38:12.986Z,25.75
2017-09-22T05:40:41.835Z,25.50
2017-09-22T05:43:10.704Z,25.08
2017-09-22T05:45:39.586Z,26.98
2017-09-22T05:48:09.196Z,26.58
2017-09-22T05:50:38.071Z,24.83
2017-09-22T05:53:06.975Z,27.40
2017-09-22T05:55:35.556Z,26.48
2017-09-22T05:58:04.680Z,26.77
2017-09-22T06:00:33.551Z,27.33
2017-09-22T06:03:03.287Z,27.83
2017-09-22T06:05:33.048Z,30.62
2017-09-22T06:08:01.923Z,27.75
2017-09-22T06:10:30.808Z,27.58
2017-09-22T06:13:00.451Z,30.40
2017-09-22T06:15:29.302Z,26.65
2017-09-22T06:17:58.165Z,27.13
2017-09-22T06:20:27.039Z,27.02
2017-09-22T06:22:56.004Z,29.37
2017-09-22T06:25:24.870Z,28.30
2017-09-22T06:27:55.304Z,26.80
2017-09-22T06:30:24.940Z,31.33
2017-09-22T06:32:53.801Z,26.92
2017-09-22T06:35:22.651Z,27.52
2017-09-22T06:37:51.512Z,27.37
2017-09-22T06:40:20.378Z,30.25
2017-09-22T06:42:49.996Z,26.48
2017-09-22T06:45:19.615Z,28.80
2017-09-22T06:47:48.472Z,26.58
2017-09-22T06:50:17.148Z,26.20
2017-09-22T06:52:45.987Z,26.98
2017-09-22T06:55:15.236Z,26.08
2017-09-22T06:57:44.097Z,29.92
2017-09-22T07:00:12.961Z,27.25
2017-09-22T07:02:41.827Z,29.37
2017-09-22T07:05:10.682Z,29.63
2017-09-22T07:07:39.553Z,28.02
2017-09-22T07:10:08.421Z,28.38
2017-09-22T07:12:38.053Z,30.05
2017-09-22T07:15:06.931Z,30.80
2017-09-22T07:17:35.792Z,30.27
2017-09-22T07:20:04.649Z,29.58
2017-09-22T07:22:33.531Z,29.98
2017-09-22T07:25:02.399Z,31.60
2017-09-22T07:27:31.486Z,32.17
2017-09-22T07:30:00.351Z,30.15
2017-09-22T07:32:29.209Z,29.70
2017-09-22T07:34:58.054Z,29.77
2017-09-22T07:37:26.925Z,32.70
2017-09-22T07:39:55.775Z,27.87
2017-09-22T07:42:24.643Z,29.77
2017-09-22T07:44:53.513Z,29.60
2017-09-22T07:47:22.961Z,31.37
2017-09-22T07:49:51.822Z,31.73
2017-09-22T07:52:20.687Z,34.42
2017-09-22T07:54:49.548Z,35.10
2017-09-22T07:57:18.430Z,33.28
2017-09-22T07:59:47.292Z,31.73
2017-09-22T08:02:16.144Z,33.55
2017-09-22T08:04:45.009Z,34.22
2017-09-22T08:07:13.893Z,32.55
2017-09-22T08:09:42.760Z,34.55
2017-09-22T08:12:11.632Z,33.63
2017-09-22T08:14:40.501Z,34.38
2017-09-22T08:17:09.356Z,32.10
2017-09-22T08:19:38.221Z,32.33
2017-09-22T08:22:07.063Z,29.55
2017-09-22T08:24:35.960Z,30.75
2017-09-22T08:27:04.823Z,32.88
2017-09-22T08:29:33.700Z,32.08
2017-09-22T08:32:02.561Z,33.10
2017-09-22T08:34:32.205Z,34.10
2017-09-22T08:37:01.108Z,34.38
2017-09-22T08:39:29.967Z,30.92
2017-09-22T08:41:58.856Z,33.72
2017-09-22T08:44:27.717Z,33.40
2017-09-22T08:46:56.575Z,32.45
2017-09-22T08:49:25.468Z,33.10
2017-09-22T08:51:54.358Z,31.48
2017-09-22T08:54:24.152Z,33.20
2017-09-22T08:56:53.036Z,33.88
2017-09-22T08:59:21.897Z,33.33
2017-09-22T09:01:51.573Z,33.53
2017-09-22T09:04:20.454Z,30.85
2017-09-22T09:06:49.310Z,30.25
2017-09-22T09:09:18.180Z,24.25
2017-09-22T09:11:47.025Z,26.65
2017-09-22T09:14:15.896Z,24.42
2017-09-22T09:16:44.792Z,19.42
2017-09-22T09:19:13.647Z,23.75
2017-09-22T09:21:42.525Z,22.30
2017-09-22T09:24:12.294Z,20.67
2017-09-22T09:26:41.159Z,18.77
2017-09-22T09:29:10.023Z,20.17
2017-09-22T09:31:39.655Z,20.08
2017-09-22T09:34:08.525Z,19.35
2017-09-22T09:36:38.157Z,21.15
2017-09-22T09:39:07.011Z,20.45
2017-09-22T09:41:35.895Z,20.42
2017-09-22T09:44:04.780Z,23.02
2017-09-22T09:46:33.710Z,22.95
2017-09-22T09:49:03.350Z,19.25
2017-09-22T09:51:32.213Z,19.27
2017-09-22T09:54:01.856Z,13.00
2017-09-22T09:56:31.699Z,14.00
2017-09-22T09:59:00.561Z,14.90
2017-09-22T10:01:29.416Z,11.93
2017-09-22T10:03:58.283Z,11.15
2017-09-22T10:06:27.134Z,7.97
2017-09-22T10:08:56.016Z,8.30
2017-09-22T10:11:24.887Z,7.65
2017-09-22T10:13:53.747Z,10.02
2017-09-22T10:16:22.611Z,10.27
2017-09-22T10:18:51.469Z,9.45
2017-09-22T10:21:20.345Z,10.50
2017-09-22T10:23:49.973Z,9.75
2017-09-22T10:26:18.873Z,8.75
2017-09-22T10:28:47.731Z,9.05
2017-09-22T10:31:18.389Z,8.80
2017-09-22T10:33:47.415Z,9.68
2017-09-22T10:36:16.294Z,10.73
2017-09-22T10:38:45.154Z,10.50
2017-09-22T10:41:14.011Z,9.82
2017-09-22T10:43:42.875Z,10.70
2017-09-22T10:46:12.615Z,10.07
2017-09-22T10:48:41.480Z,9.85
2017-09-22T10:51:10.357Z,10.68
2017-09-22T10:53:39.228Z,10.60
2017-09-22T10:56:08.102Z,11.70
2017-09-22T10:58:37.752Z,9.68
2017-09-22T11:01:06.621Z,10.23
2017-09-22T11:03:35.497Z,9.88
2017-09-22T11:06:05.145Z,9.73
2017-09-22T11:08:34.794Z,9.73
2017-09-22T11:11:03.798Z,9.80
2017-09-22T11:13:33.440Z,12.65
2017-09-22T11:16:02.310Z,13.68
2017-09-22T11:18:31.941Z,12.27
2017-09-22T11:21:00.503Z,12.63
2017-09-22T11:23:30.140Z,11.35
2017-09-22T11:25:59.016Z,11.38
2017-09-22T11:28:27.871Z,9.45
2017-09-22T11:30:55.573Z,9.05
2017-09-22T11:33:24.991Z,8.38
2017-09-22T11:35:53.840Z,7.12
2017-09-22T11:38:22.693Z,7.35
2017-09-22T11:40:51.542Z,7.20
2017-09-22T11:43:21.167Z,7.65
2017-09-22T11:45:50.016Z,7.40
2017-09-22T11:48:18.937Z,7.50
2017-09-22T11:50:47.796Z,8.50
2017-09-22T11:53:17.306Z,6.97
2017-09-22T11:55:46.163Z,8.07
2017-09-22T11:58:15.024Z,8.88
2017-09-22T12:00:43.873Z,7.87
2017-09-22T12:03:12.716Z,7.32
2017-09-22T12:05:41.551Z,8.13
2017-09-22T12:08:10.405Z,7.50
2017-09-22T12:10:39.277Z,7.80
2017-09-22T12:13:08.119Z,6.90
2017-09-22T12:15:44.786Z,7.28
2017-09-22T12:18:13.635Z,7.20
2017-09-22T12:20:42.490Z,7.05
2017-09-22T12:23:11.403Z,7.07
2017-09-22T12:25:41.041Z,6.35
2017-09-22T12:28:09.892Z,8.02
2017-09-22T12:30:39.526Z,7.30
2017-09-22T12:33:08.384Z,7.78
2017-09-22T12:35:38.019Z,7.47
2017-09-22T12:38:07.645Z,7.35
2017-09-22T12:40:36.494Z,7.80
2017-09-22T12:43:05.785Z,7.55
2017-09-22T12:45:34.640Z,7.65
2017-09-22T12:48:03.479Z,7.50
2017-09-22T12:50:33.123Z,8.20
2017-09-22T12:53:01.973Z,6.65
2017-09-22T12:55:30.846Z,7.97
2017-09-22T12:57:59.688Z,7.87
2017-09-22T13:00:28.888Z,6.90
2017-09-22T13:02:59.824Z,7.37
2017-09-22T13:05:28.693Z,7.62
2017-09-22T13:07:58.150Z,7.82
2017-09-22T13:10:26.821Z,8.73
2017-09-22T13:12:55.480Z,7.28
2017-09-22T13:15:25.093Z,7.40
2017-09-22T13:17:54.724Z,8.13
2017-09-22T13:20:23.572Z,7.60
2017-09-22T13:22:52.426Z,7.62
2017-09-22T13:25:21.301Z,8.38
2017-09-22T13:27:50.229Z,8.43
2017-09-22T13:30:19.559Z,7.40
2017-09-22T13:32:49.184Z,9.07
2017-09-22T13:35:18.800Z,7.28
2017-09-22T13:37:47.666Z,8.95
2017-09-22T13:40:17.283Z,8.70
2017-09-22T13:42:46.804Z,8.63
2017-09-22T13:45:15.476Z,7.35
2017-09-22T13:47:45.105Z,8.77
2017-09-22T13:50:13.972Z,8.00
2017-09-22T13:52:42.836Z,7.05
2017-09-22T13:55:11.486Z,7.93
2017-09-22T13:57:40.352Z,8.93
2017-09-22T14:00:09.210Z,7.68
2017-09-22T14:02:38.075Z,9.30
2017-09-22T14:05:07.597Z,7.43
2017-09-22T14:07:36.444Z,7.25
2017-09-22T14:10:05.310Z,7.07
2017-09-22T14:12:34.156Z,6.45
2017-09-22T14:15:03.015Z,6.10
2017-09-22T14:17:31.879Z,6.50
2017-09-22T14:20:01.511Z,5.32
2017-09-22T14:22:30.361Z,5.12
2017-09-22T14:24:59.212Z,6.47
2017-09-22T14:27:28.058Z,5.97
2017-09-22T14:29:56.900Z,6.72
2017-09-22T14:32:25.752Z,6.43
2017-09-22T14:34:55.391Z,6.57
2017-09-22T14:37:24.243Z,5.10
2017-09-22T14:39:53.090Z,6.85
2017-09-22T14:42:21.963Z,6.95
2017-09-22T14:44:50.819Z,6.60
2017-09-22T14:47:20.427Z,7.82
2017-09-22T14:49:50.053Z,8.10
2017-09-22T14:52:27.855Z,7.97
2017-09-22T14:54:56.913Z,7.15
2017-09-22T14:57:26.083Z,7.68
2017-09-22T14:59:55.798Z,7.25
2017-09-22T15:02:24.648Z,7.65
2017-09-22T15:04:53.505Z,7.72
2017-09-22T15:07:22.343Z,7.25
2017-09-22T15:09:51.168Z,7.85
2017-09-22T15:12:20.024Z,7.22
2017-09-22T15:14:48.886Z,7.12
2017-09-22T15:17:18.523Z,7.65
2017-09-22T15:19:47.384Z,7.43
2017-09-22T15:22:17.021Z,8.05
2017-09-22T15:24:45.889Z,7.30
2017-09-22T15:27:15.524Z,7.28
2017-09-22T15:29:44.380Z,6.87
2017-09-22T15:32:13.991Z,7.35
2017-09-22T15:34:43.301Z,6.18
2017-09-22T15:37:12.170Z,7.20
2017-09-22T15:39:41.012Z,6.97
2017-09-22T15:42:09.863Z,6.93
2017-09-22T15:44:39.501Z,7.43
2017-09-22T15:47:08.393Z,8.75
2017-09-22T15:49:37.257Z,7.85
2017-09-22T15:52:06.106Z,6.65
2017-09-22T15:54:34.633Z,6.80
2017-09-22T15:57:04.245Z,6.90
2017-09-22T15:59:33.680Z,7.93
2017-09-22T16:02:02.589Z,8.38
2017-09-22T16:04:31.456Z,7.82
2017-09-22T16:07:00.121Z,7.37
2017-09-22T16:09:29.738Z,5.87
2017-09-22T16:11:59.364Z,6.07
2017-09-22T16:14:28.244Z,7.70
2017-09-22T16:16:57.032Z,7.68
2017-09-22T16:19:25.719Z,6.05
2017-09-22T16:21:54.384Z,6.85
2017-09-22T16:24:23.224Z,8.02
2017-09-22T16:26:52.095Z,7.93
2017-09-22T16:29:22.474Z,7.22
2017-09-22T16:31:51.351Z,9.13
2017-09-22T16:34:20.977Z,9.05
2017-09-22T16:36:50.786Z,8.45
2017-09-22T16:39:19.627Z,6.65
2017-09-22T16:41:48.508Z,7.47
2017-09-22T16:44:17.377Z,8.10
2017-09-22T16:46:47.013Z,6.97
2017-09-22T16:49:15.984Z,7.95
2017-09-22T16:51:45.607Z,8.93
2017-09-22T16:54:14.488Z,8.10
2017-09-22T16:56:44.116Z,7.15
2017-09-22T16:59:12.961Z,7.85
2017-09-22T17:01:41.809Z,7.70
2017-09-22T17:04:10.692Z,9.32
2017-09-22T17:06:39.548Z,9.32
2017-09-22T17:09:09.988Z,7.95
2017-09-22T17:11:39.716Z,7.93
2017-09-22T17:14:08.613Z,8.57
2017-09-22T17:16:37.471Z,8.25
2017-09-22T17:19:06.420Z,7.70
2017-09-22T17:21:35.287Z,8.93
2017-09-22T17:24:04.182Z,9.52
2017-09-22T17:26:34.048Z,9.05
2017-09-22T17:29:02.912Z,9.93
2017-09-22T17:31:31.789Z,8.68
2017-09-22T17:34:00.641Z,9.40
2017-09-22T17:36:30.260Z,7.57
2017-09-22T17:38:59.885Z,9.05
2017-09-22T17:41:51.246Z,9.32
2017-09-22T17:44:29.197Z,9.32
2017-09-22T17:46:58.190Z,9.25
2017-09-22T17:49:27.057Z,10.25
2017-09-22T17:51:55.927Z,9.52
2017-09-22T19:19:23.763Z,15.73
2017-09-22T19:21:52.621Z,16.00
2017-09-22T19:24:22.279Z,15.50
2017-09-22T19:26:51.142Z,17.42
2017-09-22T19:29:21.792Z,16.60
2017-09-22T19:32:06.020Z,18.20
2017-09-22T19:34:36.955Z,16.87
2017-09-22T19:37:05.843Z,17.70
2017-09-22T19:39:36.098Z,17.60
2017-09-22T19:42:04.963Z,18.33
2017-09-22T19:44:33.840Z,17.77
2017-09-22T19:47:03.592Z,19.60
2017-09-22T19:49:32.443Z,19.70
2017-09-22T19:52:02.071Z,18.58
2017-09-22T19:54:31.418Z,15.35
2017-09-22T19:57:00.310Z,16.85
2017-09-22T19:59:29.189Z,17.17
2017-09-22T20:01:58.812Z,17.75
2017-09-22T20:04:27.684Z,18.02
2017-09-22T20:06:56.526Z,17.20
2017-09-22T20:09:26.147Z,17.90
2017-09-22T20:11:55.018Z,16.87
2017-09-22T20:14:24.655Z,18.80
2017-09-22T20:16:53.528Z,20.37
2017-09-22T20:19:24.043Z,20.15
2017-09-22T20:21:52.910Z,20.73
2017-09-22T20:24:23.219Z,19.83
2017-09-22T20:26:52.082Z,19.80
2017-09-22T20:29:20.950Z,19.67
2017-09-22T20:31:51.063Z,19.30
2017-09-22T20:34:22.693Z,22.62
2017-09-22T20:36:52.395Z,22.13
2017-09-22T20:39:22.588Z,20.85
2017-09-22T20:41:51.448Z,21.10
2017-09-22T20:44:20.304Z,20.65
2017-09-22T20:46:49.177Z,21.35
2017-09-22T20:49:18.048Z,18.83
2017-09-22T20:51:46.908Z,18.55
2017-09-22T20:54:16.635Z,19.92
2017-09-22T20:56:46.342Z,22.02
2017-09-22T20:59:16.015Z,20.15
2017-09-22T21:01:44.896Z,21.27
2017-09-22T21:04:13.861Z,22.50
2017-09-22T21:06:42.753Z,22.52
2017-09-22T21:09:11.606Z,23.23
2017-09-22T21:11:40.459Z,19.80
2017-09-22T21:14:09.336Z,22.77
2017-09-22T21:16:38.196Z,23.70
2017-09-22T21:19:07.057Z,22.95
2017-09-22T21:21:35.924Z,21.98
2017-09-22T21:24:04.771Z,20.62
2017-09-22T21:26:33.639Z,21.35
2017-09-22T21:29:02.526Z,21.45
2017-09-22T21:31:31.388Z,21.45
2017-09-22T21:34:00.257Z,18.20
2017-09-22T21:36:29.144Z,21.73
2017-09-22T21:38:58.007Z,24.33
2017-09-22T21:41:27.637Z,21.73
2017-09-22T21:43:56.508Z,22.35
2017-09-22T21:46:25.383Z,22.30
2017-09-22T21:48:54.319Z,21.75
2017-09-22T21:51:23.186Z,19.80
2017-09-22T21:53:52.812Z,22.73
2017-09-22T21:56:36.044Z,23.23
2017-09-22T21:59:08.973Z,21.73
2017-09-22T22:01:37.866Z,21.92
2017-09-22T22:04:12.294Z,20.88
2017-09-22T22:06:46.920Z,19.27
2017-09-22T22:09:16.767Z,21.50
2017-09-22T22:11:45.642Z,17.67
2017-09-22T22:14:14.496Z,16.48
2017-09-22T22:16:43.365Z,20.15
2017-09-22T22:19:12.239Z,19.92
2017-09-22T22:21:41.125Z,20.25
2017-09-22T22:24:26.855Z,20.08
2017-09-22T22:26:55.713Z,19.85
2017-09-22T22:29:24.620Z,20.08
2017-09-22T22:31:53.695Z,21.00
2017-09-22T22:34:22.596Z,19.08
2017-09-22T22:37:02.476Z,20.15
2017-09-22T22:39:31.913Z,19.05
2017-09-22T22:42:00.773Z,19.48
2017-09-22T22:44:29.634Z,19.73
2017-09-22T22:46:58.495Z,19.65
2017-09-22T22:49:27.370Z,19.10
2017-09-22T22:51:56.705Z,17.25
2017-09-22T22:54:25.578Z,17.75
2017-09-22T22:56:55.206Z,19.70
2017-09-22T22:59:24.840Z,20.77
2017-09-22T23:01:53.695Z,20.17
2017-09-22T23:04:22.568Z,18.85
2017-09-22T23:06:51.424Z,19.58
2017-09-22T23:09:20.285Z,18.37
2017-09-22T23:11:49.151Z,18.45
2017-09-22T23:14:18.025Z,17.67
2017-09-22T23:16:46.883Z,18.12
2017-09-22T23:19:15.767Z,16.58
2017-09-22T23:21:44.624Z,17.92
2017-09-22T23:24:14.248Z,18.73
2017-09-22T23:26:43.903Z,18.62
2017-09-22T23:29:12.759Z,18.98
2017-09-22T23:31:41.608Z,16.92
2017-09-22T23:34:10.475Z,19.87
2017-09-22T23:36:39.342Z,17.12
2017-09-22T23:39:08.199Z,17.52
2017-09-22T23:41:37.818Z,19.17
2017-09-22T23:44:07.439Z,18.75
2017-09-22T23:46:36.294Z,17.05
2017-09-22T23:49:05.154Z,16.42
2017-09-22T23:51:34.020Z,18.90
2017-09-22T23:54:02.884Z,19.23
2017-09-22T23:56:32.511Z,18.05
2017-09-22T23:59:01.368Z,17.85
